Detall de PIREP

Printer-friendly versionPDF version

[2014/06/01 09:41:00]
Flight IATA:CT2309
Pilot Number:042
Company ICAO:CAT
Aircraft Type:F100/A
PAX:48
Aircraft Registration:PFJ
Departing Airport: LIMJ
Destination Airport: LIEA
Alternate Airport:LIEO
Online: VATSIM
Route:UNITA UM858 AJO UM194 REVDO
Flight Level:F250
No Slew and time accel
No pause
Crash detect
Detect pilot in Cockpit between each 30 and 45 minutes
09:41 Zero fuel Weight: 81826 Lbs, Fuel Weight: 22685 Lbs
09:41 VATSIM:LIMJ 010920Z 17004KT 130V190 9999 FEW025 20/16 Q1017
09:41 VATSIM:LIEA 010920Z 09009KT 050V120 9999 FEW028 24/11 Q1016
09:42 Parking Brakes off
09:45 Take-off
09:45 Take off Weight: 104159 Lbs
09:45 Wind: 197º @ 004 Knots Heading: 283º
09:45 POS N44º 24´ 55´´ E008º 49´ 28´´
09:45 Gear Up: 168 Knots
09:45 Flaps:2 at 168 Knots
09:45 Flaps:1 at 172 Knots
09:46 Flaps:0 at 187 Knots
09:56 TOC
09:56 Fuel Weight: 20677 Lb
10:00 Wind:063º@018 Knots Heading: 183º Ground Speed: 441 Knots Altitude 25118 ft
10:15 Wind:073º@022 Knots Heading: 186º Ground Speed: 453 Knots Altitude 25111 ft
10:15 TOD
10:15 Fuel Weight: 18789 Lb
10:22 Flaps:1 at 223 Knots
10:22 Flaps:2 at 217 Knots
10:23 Gear Down: 181 Knots
10:23 Flaps:3 at 181 Knots
10:24 Flaps:4 at 188 Knots
10:26 TouchDown:Rate -125 ft/min Speed: 120 Knots
10:26 VATSIM:LIEA 010950Z 08009KT 030V120 9999 FEW028 25/11 Q1016
10:26 Land
10:26 Wind:072º@009 Knots
10:26 Heading: 204º
10:26 Flight Duration: 00:41
10:26 Landing Weight: 99925 Lbs
10:26 POS N40º 37´ 52´´ E008º 17´ 25´´
10:27 Parking brakes on
10:27 Block to Block Duration: 00:45
10:27 Final Fuel: 18060 Lbls
10:27 Spent Fuel: 4625 Lbls
10:27 Flight Length: 235 NM
10:27 TOD Land Length: 49 NM

Exportar CSV

Powered by Drupal - Modified by Danger4k